createdAt,value
2018-07-17T00:00:54.777Z,20.10
2018-07-17T00:03:58.701Z,20.10
2018-07-17T00:07:02.652Z,20.10
2018-07-17T00:10:06.958Z,20.10
2018-07-17T00:13:10.952Z,20.10
2018-07-17T00:16:14.847Z,20.10
2018-07-17T00:19:18.764Z,20.10
2018-07-17T00:22:22.641Z,20.00
2018-07-17T00:25:26.944Z,20.00
2018-07-17T00:28:30.879Z,19.90
2018-07-17T00:31:34.867Z,19.90
2018-07-17T00:34:38.715Z,19.90
2018-07-17T00:37:42.616Z,19.90
2018-07-17T00:40:46.555Z,19.90
2018-07-17T00:43:50.444Z,19.90
2018-07-17T00:46:54.339Z,19.80
2018-07-17T00:49:58.195Z,19.80
2018-07-17T00:53:02.065Z,19.80
2018-07-17T00:56:05.949Z,19.80
2018-07-17T00:59:09.851Z,19.80
2018-07-17T01:02:18.860Z,19.80
2018-07-17T01:05:27.874Z,19.80
2018-07-17T01:08:36.917Z,19.90
2018-07-17T01:11:46.040Z,19.90
2018-07-17T01:14:58.731Z,19.80
2018-07-17T01:18:02.736Z,19.80
2018-07-17T01:21:06.748Z,19.80
2018-07-17T01:24:10.680Z,19.80
2018-07-17T01:27:14.591Z,19.80
2018-07-17T01:30:18.506Z,20.00
2018-07-17T01:33:22.324Z,20.10
2018-07-17T01:36:26.606Z,20.20
2018-07-17T01:39:30.487Z,20.30
2018-07-17T01:42:34.517Z,20.30
2018-07-17T01:45:39.531Z,20.40
2018-07-17T01:48:43.494Z,20.40
2018-07-17T01:51:47.784Z,20.50
2018-07-17T01:54:51.773Z,20.50
2018-07-17T01:57:55.675Z,20.50
2018-07-17T02:00:59.629Z,20.50
2018-07-17T02:04:03.649Z,20.50
2018-07-17T02:07:07.772Z,20.30
2018-07-17T02:10:11.673Z,20.30
2018-07-17T02:13:15.548Z,20.30
2018-07-17T02:16:19.562Z,20.20
2018-07-17T02:19:23.452Z,20.20
2018-07-17T02:22:27.384Z,20.30
2018-07-17T02:25:31.285Z,20.30
2018-07-17T02:28:35.163Z,20.30
2018-07-17T02:31:39.213Z,20.30
2018-07-17T02:34:43.137Z,20.30
2018-07-17T02:37:47.012Z,20.30
2018-07-17T02:40:50.898Z,20.40
2018-07-17T02:43:54.793Z,20.30
2018-07-17T02:46:58.690Z,20.30
2018-07-17T02:50:02.681Z,20.30
2018-07-17T02:53:06.541Z,20.30
2018-07-17T02:56:10.513Z,20.20
2018-07-17T02:59:14.469Z,20.20
2018-07-17T03:02:18.350Z,20.30
2018-07-17T03:05:22.236Z,20.30
2018-07-17T03:08:26.153Z,20.20
2018-07-17T03:11:30.066Z,20.20
2018-07-17T03:14:33.919Z,20.20
2018-07-17T03:17:37.843Z,20.10
2018-07-17T03:20:41.712Z,20.10
2018-07-17T03:23:45.613Z,20.00
2018-07-17T03:26:49.517Z,19.90
2018-07-17T03:29:53.422Z,19.90
2018-07-17T03:32:57.339Z,19.90
2018-07-17T03:36:01.273Z,19.90
2018-07-17T03:39:06.933Z,19.80
2018-07-17T03:42:10.855Z,19.70
2018-07-17T03:45:14.740Z,19.70
2018-07-17T03:48:18.669Z,19.80
2018-07-17T03:51:22.523Z,19.80
2018-07-17T03:54:26.379Z,19.80
2018-07-17T03:57:30.260Z,19.90
2018-07-17T04:00:34.275Z,20.00
2018-07-17T04:03:38.332Z,20.10
2018-07-17T04:06:42.215Z,20.10
2018-07-17T04:09:46.150Z,20.20
2018-07-17T04:12:50.028Z,20.30
2018-07-17T04:15:53.878Z,20.30
2018-07-17T04:18:57.746Z,20.30
2018-07-17T04:22:01.693Z,20.30
2018-07-17T04:25:05.647Z,20.30
2018-07-17T04:28:09.582Z,20.30
2018-07-17T04:31:13.446Z,20.30
2018-07-17T04:34:17.327Z,20.40
2018-07-17T04:37:21.245Z,20.50
2018-07-17T04:40:25.134Z,20.50
2018-07-17T04:43:29.019Z,20.60
2018-07-17T04:46:32.991Z,20.70
2018-07-17T04:49:36.819Z,20.70
2018-07-17T04:52:40.715Z,20.90
2018-07-17T04:55:44.609Z,21.10
2018-07-17T04:58:48.508Z,21.30
2018-07-17T05:01:52.392Z,21.50
2018-07-17T05:04:56.415Z,21.70
2018-07-17T05:08:00.289Z,21.80
2018-07-17T05:11:04.172Z,22.00
2018-07-17T05:14:08.051Z,22.20
2018-07-17T05:17:12.136Z,22.30
2018-07-17T05:20:16.035Z,22.60
2018-07-17T05:23:19.945Z,22.60
2018-07-17T05:26:23.912Z,22.70
2018-07-17T05:29:27.832Z,22.70
2018-07-17T05:32:31.692Z,22.70
2018-07-17T05:35:35.630Z,22.80
2018-07-17T05:38:39.503Z,22.90
2018-07-17T05:41:46.353Z,22.80
2018-07-17T05:44:50.297Z,22.80
2018-07-17T05:47:54.157Z,22.80
2018-07-17T05:50:58.066Z,22.70
2018-07-17T05:54:01.961Z,22.60
2018-07-17T05:57:05.915Z,22.60
2018-07-17T06:00:10.279Z,22.70
2018-07-17T06:03:14.305Z,22.90
2018-07-17T06:06:18.217Z,23.10
2018-07-17T06:09:22.208Z,23.50
2018-07-17T06:12:26.148Z,23.60
2018-07-17T06:15:30.164Z,23.70
2018-07-17T06:18:34.177Z,23.90
2018-07-17T06:21:38.053Z,24.10
2018-07-17T06:24:42.016Z,24.30
2018-07-17T06:27:45.922Z,24.60
2018-07-17T06:30:49.903Z,24.80
2018-07-17T06:33:53.816Z,25.00
2018-07-17T06:36:57.672Z,25.50
2018-07-17T06:40:01.543Z,25.70
2018-07-17T06:43:05.518Z,25.60
2018-07-17T06:46:09.461Z,25.50
2018-07-17T06:49:13.372Z,25.40
2018-07-17T06:52:17.277Z,25.60
2018-07-17T06:55:21.126Z,25.60
2018-07-17T06:58:25.038Z,25.60
2018-07-17T07:01:28.902Z,25.90
2018-07-17T07:04:32.914Z,26.10
2018-07-17T07:07:36.856Z,26.10
2018-07-17T07:10:40.761Z,26.00
2018-07-17T07:13:44.649Z,25.90
2018-07-17T07:16:48.580Z,25.70
2018-07-17T07:19:52.438Z,25.50
2018-07-17T07:22:56.311Z,25.40
2018-07-17T07:26:00.273Z,25.30
2018-07-17T07:29:04.621Z,25.20
2018-07-17T07:32:08.560Z,25.20
2018-07-17T07:35:12.487Z,25.20
2018-07-17T07:38:16.558Z,25.10
2018-07-17T07:41:20.489Z,25.10
2018-07-17T07:44:24.354Z,25.10
2018-07-17T07:47:28.244Z,25.10
2018-07-17T07:50:32.127Z,25.10
2018-07-17T07:53:36.016Z,25.10
2018-07-17T07:56:39.938Z,25.30
2018-07-17T07:59:43.806Z,25.40
2018-07-17T08:02:47.726Z,25.50
2018-07-17T08:05:51.592Z,25.70
2018-07-17T08:08:55.482Z,25.60
2018-07-17T08:11:59.368Z,25.70
2018-07-17T08:15:03.391Z,25.70
2018-07-17T08:18:07.422Z,25.70
2018-07-17T08:21:11.394Z,25.60
2018-07-17T08:24:15.313Z,25.50
2018-07-17T08:27:19.260Z,25.50
2018-07-17T08:30:23.313Z,25.60
2018-07-17T08:33:27.390Z,25.60
2018-07-17T08:36:31.317Z,25.70
2018-07-17T08:39:35.229Z,25.80
2018-07-17T08:42:39.169Z,25.90
2018-07-17T08:45:43.274Z,26.00
2018-07-17T08:48:47.208Z,26.20
2018-07-17T08:51:51.134Z,26.30
2018-07-17T08:54:55.008Z,26.40
2018-07-17T08:57:58.928Z,26.60
2018-07-17T09:01:02.918Z,26.90
2018-07-17T09:04:06.879Z,27.30
2018-07-17T09:07:10.756Z,27.90
2018-07-17T09:10:14.737Z,28.50
2018-07-17T09:13:18.598Z,28.90
2018-07-17T09:16:22.532Z,29.10
2018-07-17T09:19:26.441Z,29.30
2018-07-17T09:22:30.391Z,29.40
2018-07-17T09:25:34.441Z,29.90
2018-07-17T09:28:38.380Z,30.00
2018-07-17T09:31:42.267Z,29.90
2018-07-17T09:34:46.175Z,29.80
2018-07-17T09:37:50.096Z,29.80
2018-07-17T09:40:54.416Z,29.90
2018-07-17T09:43:58.326Z,29.70
2018-07-17T09:47:02.312Z,29.50
2018-07-17T09:50:06.228Z,29.40
2018-07-17T09:53:10.183Z,29.50
2018-07-17T09:56:14.080Z,29.70
2018-07-17T09:59:18.004Z,29.90
2018-07-17T10:02:28.321Z,30.00
2018-07-17T10:05:32.213Z,30.10
2018-07-17T10:08:36.139Z,30.20
2018-07-17T10:11:40.091Z,30.20
2018-07-17T10:14:44.015Z,29.90
2018-07-17T10:17:48.033Z,29.80
2018-07-17T10:20:52.053Z,29.70
2018-07-17T10:23:55.993Z,29.40
2018-07-17T10:26:59.900Z,29.10
2018-07-17T10:30:03.981Z,29.00
2018-07-17T10:33:07.813Z,29.00
2018-07-17T10:36:11.827Z,28.90
2018-07-17T10:39:15.833Z,28.60
2018-07-17T10:42:19.757Z,28.40
2018-07-17T10:45:23.700Z,28.50
2018-07-17T10:48:27.639Z,28.60
2018-07-17T10:51:31.551Z,28.60
2018-07-17T10:54:35.471Z,28.50
2018-07-17T10:57:39.364Z,28.40
2018-07-17T11:00:43.294Z,28.20
2018-07-17T11:03:47.366Z,28.00
2018-07-17T11:06:51.341Z,27.80
2018-07-17T11:09:55.345Z,27.40
2018-07-17T11:12:59.212Z,27.00
2018-07-17T11:16:03.374Z,26.80
2018-07-17T11:19:07.278Z,26.50
2018-07-17T11:22:11.233Z,26.20
2018-07-17T11:25:15.200Z,26.20
2018-07-17T11:28:19.162Z,26.20
2018-07-17T11:31:23.101Z,26.20
2018-07-17T11:34:27.045Z,26.20
2018-07-17T11:37:31.007Z,26.10
2018-07-17T11:40:35.255Z,25.90
2018-07-17T11:43:39.175Z,25.80
2018-07-17T11:46:43.421Z,25.70
2018-07-17T11:49:47.428Z,25.60
2018-07-17T11:52:51.432Z,25.50
2018-07-17T11:55:55.384Z,25.40
2018-07-17T11:58:59.389Z,25.30
2018-07-17T12:02:03.311Z,25.20
2018-07-17T12:05:07.655Z,25.40
2018-07-17T12:08:11.624Z,25.40
2018-07-17T12:11:15.586Z,25.40
2018-07-17T12:14:19.822Z,25.40
2018-07-17T12:17:23.818Z,25.50
2018-07-17T12:20:27.938Z,25.50
2018-07-17T12:23:32.083Z,25.60
2018-07-17T12:26:36.035Z,25.60
2018-07-17T12:29:40.062Z,25.60
2018-07-17T12:32:44.011Z,25.70
2018-07-17T12:35:47.906Z,25.80
2018-07-17T12:38:51.944Z,26.00
2018-07-17T12:41:56.253Z,26.30
2018-07-17T12:45:00.701Z,26.50
2018-07-17T12:48:04.705Z,26.50
2018-07-17T12:51:08.699Z,26.70
2018-07-17T12:54:12.780Z,26.90
2018-07-17T12:57:16.806Z,27.10
2018-07-17T13:00:20.746Z,27.30
2018-07-17T13:03:24.813Z,27.40
2018-07-17T13:06:28.881Z,27.60
2018-07-17T13:09:32.954Z,27.90
2018-07-17T13:12:37.068Z,28.10
2018-07-17T13:15:41.221Z,28.20
2018-07-17T13:18:45.489Z,28.40
2018-07-17T13:21:49.706Z,28.40
2018-07-17T13:24:53.801Z,28.60
2018-07-17T13:27:57.835Z,28.80
2018-07-17T13:31:01.917Z,28.90
2018-07-17T13:34:06.189Z,28.80
2018-07-17T13:37:10.284Z,28.70
2018-07-17T13:40:14.242Z,28.40
2018-07-17T13:43:18.190Z,28.20
2018-07-17T13:46:22.306Z,28.00
2018-07-17T13:49:26.220Z,27.90
2018-07-17T13:52:31.287Z,27.80
2018-07-17T13:55:36.289Z,27.80
2018-07-17T13:58:40.266Z,27.80
2018-07-17T14:01:44.277Z,27.70
2018-07-17T14:04:48.207Z,27.60
2018-07-17T14:07:52.186Z,27.60
2018-07-17T14:10:56.053Z,27.60
2018-07-17T14:14:00.017Z,27.60
2018-07-17T14:17:04.013Z,27.60
2018-07-17T14:20:07.965Z,27.60
2018-07-17T14:23:11.865Z,27.60
2018-07-17T14:26:15.746Z,27.70
2018-07-17T14:29:19.726Z,27.70
2018-07-17T14:32:23.670Z,27.50
2018-07-17T14:35:27.597Z,27.50
2018-07-17T14:38:31.516Z,27.50
2018-07-17T14:41:35.530Z,27.50
2018-07-17T14:44:39.426Z,27.50
2018-07-17T14:47:43.379Z,27.60
2018-07-17T14:50:47.334Z,27.60
2018-07-17T14:53:51.207Z,27.60
2018-07-17T14:56:55.109Z,27.60
2018-07-17T14:59:59.123Z,27.60
2018-07-17T15:03:03.040Z,27.70
2018-07-17T15:06:07.035Z,27.80
2018-07-17T15:09:11.068Z,27.80
2018-07-17T15:12:15.844Z,27.90
2018-07-17T15:15:20.735Z,27.90
2018-07-17T15:18:24.707Z,27.90
2018-07-17T15:21:28.682Z,27.90
2018-07-17T15:24:32.551Z,28.00
2018-07-17T15:27:36.478Z,28.10
2018-07-17T15:30:40.501Z,28.20
2018-07-17T15:33:44.610Z,28.20
2018-07-17T15:36:48.582Z,28.30
2018-07-17T15:39:52.435Z,28.30
2018-07-17T15:42:56.442Z,28.20
2018-07-17T15:46:00.382Z,28.20
2018-07-17T15:49:04.351Z,28.10
2018-07-17T15:52:08.286Z,28.10
2018-07-17T15:55:12.256Z,28.10
2018-07-17T15:58:16.169Z,28.10
2018-07-17T16:01:20.203Z,28.10
2018-07-17T16:04:24.215Z,28.20
2018-07-17T16:07:28.170Z,28.20
2018-07-17T16:10:32.149Z,28.20
2018-07-17T16:13:36.097Z,28.20
2018-07-17T16:16:40.057Z,28.10
2018-07-17T16:19:43.967Z,28.00
2018-07-17T16:22:48.010Z,27.90
2018-07-17T16:25:52.338Z,27.80
2018-07-17T16:28:56.294Z,27.80
2018-07-17T16:32:00.233Z,27.70
2018-07-17T16:35:04.356Z,27.70
2018-07-17T16:38:08.350Z,27.50
2018-07-17T16:41:12.312Z,27.40
2018-07-17T16:44:16.255Z,27.40
2018-07-17T16:47:20.163Z,27.40
2018-07-17T16:50:24.220Z,27.30
2018-07-17T16:53:28.198Z,27.30
2018-07-17T16:56:32.124Z,27.20
2018-07-17T16:59:36.044Z,27.20
2018-07-17T17:02:39.975Z,27.10
2018-07-17T17:05:43.986Z,27.10
2018-07-17T17:08:48.042Z,27.00
2018-07-17T17:11:51.934Z,26.90
2018-07-17T17:14:56.025Z,26.90
2018-07-17T17:18:00.112Z,26.90
2018-07-17T17:21:04.283Z,26.80
2018-07-17T17:24:09.322Z,26.70
2018-07-17T17:27:13.412Z,26.60
2018-07-17T17:30:17.454Z,26.60
2018-07-17T17:33:21.499Z,26.50
2018-07-17T17:36:26.370Z,26.50
2018-07-17T17:39:30.417Z,26.40
2018-07-17T17:42:34.347Z,26.40
2018-07-17T17:45:38.410Z,26.30
2018-07-17T17:48:42.311Z,26.30
2018-07-17T17:51:46.340Z,26.20
2018-07-17T17:54:50.248Z,26.20
2018-07-17T17:57:54.163Z,26.20
2018-07-17T18:00:58.227Z,26.20
2018-07-17T18:04:02.137Z,26.10
2018-07-17T18:07:06.167Z,26.00
2018-07-17T18:10:10.091Z,26.00
2018-07-17T18:13:13.986Z,25.90
2018-07-17T18:16:17.867Z,25.90
2018-07-17T18:19:21.869Z,25.80
2018-07-17T18:22:26.554Z,25.70
2018-07-17T18:25:31.167Z,25.70
2018-07-17T18:28:35.319Z,25.60
2018-07-17T18:31:39.442Z,25.40
2018-07-17T18:34:43.379Z,25.30
2018-07-17T18:37:47.475Z,25.20
2018-07-17T18:40:51.385Z,25.20
2018-07-17T18:43:55.290Z,25.10
2018-07-17T18:46:59.177Z,25.00
2018-07-17T18:50:12.585Z,25.00
2018-07-17T18:53:07.165Z,24.80
2018-07-17T18:56:11.455Z,24.80
2018-07-17T18:59:15.325Z,24.70
2018-07-17T19:02:19.319Z,24.60
2018-07-17T19:05:23.194Z,24.50
2018-07-17T19:08:27.308Z,24.40
2018-07-17T19:11:31.298Z,24.30
2018-07-17T19:14:35.448Z,24.20
2018-07-17T19:17:39.444Z,24.20
2018-07-17T19:20:43.437Z,24.10
2018-07-17T19:23:47.735Z,24.00
2018-07-17T19:26:52.764Z,23.90
2018-07-17T19:29:56.867Z,23.80
2018-07-17T19:33:00.773Z,23.70
2018-07-17T19:36:04.876Z,23.60
2018-07-17T19:39:10.591Z,23.50
2018-07-17T19:42:14.871Z,23.40
2018-07-17T19:45:18.771Z,23.30
2018-07-17T19:48:22.942Z,23.20
2018-07-17T19:51:26.980Z,23.10
2018-07-17T19:54:30.894Z,23.10
2018-07-17T19:57:34.850Z,23.10
2018-07-17T20:00:38.791Z,23.00
2018-07-17T20:03:42.699Z,22.90
2018-07-17T20:06:46.835Z,22.90
2018-07-17T20:09:50.695Z,22.80
2018-07-17T20:12:54.620Z,22.80
2018-07-17T20:15:58.562Z,22.70
2018-07-17T20:19:02.498Z,22.60
2018-07-17T20:22:06.574Z,22.60
2018-07-17T20:25:10.588Z,22.50
2018-07-17T20:28:14.495Z,22.50
2018-07-17T20:31:18.582Z,22.40
2018-07-17T20:34:22.470Z,22.30
2018-07-17T20:37:26.553Z,22.30
2018-07-17T20:40:30.477Z,22.20
2018-07-17T20:43:34.542Z,22.10
2018-07-17T20:46:38.525Z,22.10
2018-07-17T20:49:42.528Z,22.00
2018-07-17T20:52:46.472Z,22.00
2018-07-17T20:55:50.469Z,21.90
2018-07-17T20:58:54.475Z,21.90
2018-07-17T21:01:58.434Z,21.80
2018-07-17T21:05:02.513Z,21.80
2018-07-17T21:08:06.455Z,21.70
2018-07-17T21:11:10.501Z,21.60
2018-07-17T21:14:14.443Z,21.60
2018-07-17T21:17:18.354Z,21.50
2018-07-17T21:20:22.400Z,21.40
2018-07-17T21:23:26.321Z,21.40
2018-07-17T21:26:30.298Z,21.30
2018-07-17T21:29:34.344Z,21.30
2018-07-17T21:32:38.283Z,21.20
2018-07-17T21:35:42.222Z,21.20
2018-07-17T21:38:46.194Z,21.10
2018-07-17T21:41:50.067Z,21.10
2018-07-17T21:44:53.977Z,21.00
2018-07-17T21:47:57.940Z,21.00
2018-07-17T21:51:01.941Z,21.00
2018-07-17T21:54:06.154Z,20.90
2018-07-17T21:57:10.134Z,20.90
2018-07-17T22:00:14.117Z,20.90
2018-07-17T22:03:18.187Z,20.90
2018-07-17T22:06:22.019Z,20.80
2018-07-17T22:09:26.003Z,20.80
2018-07-17T22:12:30.017Z,20.70
2018-07-17T22:15:33.987Z,20.80
2018-07-17T22:18:37.929Z,20.80
2018-07-17T22:21:41.852Z,20.80
2018-07-17T22:24:45.743Z,20.80
2018-07-17T22:27:50.294Z,20.80
2018-07-17T22:30:54.230Z,20.80
2018-07-17T22:33:58.102Z,20.80
2018-07-17T22:37:02.086Z,20.80
2018-07-17T22:40:06.403Z,20.80
2018-07-17T22:43:10.282Z,20.70
2018-07-17T22:46:14.214Z,20.70
2018-07-17T22:49:21.550Z,20.70
2018-07-17T22:52:25.558Z,20.60
2018-07-17T22:55:29.474Z,20.60
2018-07-17T22:58:33.424Z,20.50
2018-07-17T23:01:37.935Z,20.50
2018-07-17T23:04:41.811Z,20.60
2018-07-17T23:07:45.756Z,20.60
2018-07-17T23:10:49.762Z,20.50
2018-07-17T23:13:53.636Z,20.50
2018-07-17T23:16:57.556Z,20.50
2018-07-17T23:20:01.452Z,20.50
2018-07-17T23:23:05.380Z,20.50
2018-07-17T23:26:09.300Z,20.40
2018-07-17T23:29:13.239Z,20.40
2018-07-17T23:32:17.121Z,20.40
2018-07-17T23:35:21.858Z,20.30
2018-07-17T23:38:25.751Z,20.30
2018-07-17T23:41:29.658Z,20.30
2018-07-17T23:44:35.156Z,20.30
2018-07-17T23:47:39.099Z,20.10
2018-07-17T23:50:43.000Z,20.10
2018-07-17T23:53:46.962Z,20.10
2018-07-17T23:56:51.209Z,20.00
2018-07-17T23:59:55.136Z,19.90
